Time;durP1;ratioP1;P1;durP2;ratioP2;P2;SDS_P1;SDS_P2;PMS_P1;PMS_P2;Temp;Humidity;BMP_temperature;BMP_pressure;BME280_temperature;BME280_humidity;BME280_pressure;Samples;Min_cycle;Max_cycle;Signal;HPM_P1;HPM_P2
2021/10/13 00:00:05;;;;;;;;;;;;;;;18.73;58.06;100175.34;2090671;28;19923;-43
2021/10/13 00:01:06;;;;;;;;;;;;;;;18.73;58.03;100175.34;2092111;28;19965;-44
2021/10/13 00:02:06;;;;;;;;;;;;;;;18.72;58.15;100176.34;2089957;28;19966;-44
2021/10/13 00:03:06;;;;;;;;;;;;;;;18.74;58.15;100168.00;2089176;28;20331;-44
2021/10/13 00:04:06;;;;;;;;;;;;;;;18.73;58.01;100167.16;2086097;28;20277;-44
2021/10/13 00:05:08;;;;;;;;;;;;;;;18.73;57.98;100166.28;2092227;28;19905;-43
2021/10/13 00:06:08;;;;;;;;;;;;;;;18.73;58.12;100163.56;2090265;28;19916;-43
2021/10/13 00:07:08;;;;;;;;;;;;;;;18.72;58.05;100165.44;2092140;28;19964;-44
2021/10/13 00:08:09;;;;;;;;;;;;;;;18.72;58.18;100168.16;2092302;28;19912;-44
2021/10/13 00:09:09;;;;;;;;;;;;;;;18.72;58.16;100159.97;2092379;28;19904;-43
2021/10/13 00:10:09;;;;;;;;;;;;;;;18.71;58.06;100166.44;2086749;28;19924;-43
2021/10/13 00:11:10;;;;;;;;;;;;;;;18.72;58.15;100157.25;2088862;28;19919;-43
2021/10/13 00:12:10;;;;;;;;;;;;;;;18.71;58.14;100163.69;2091715;28;20014;-43
2021/10/13 00:13:11;;;;;;;;;;;;;;;18.72;58.17;100159.13;2088828;28;19947;-44
2021/10/13 00:14:11;;;;;;;;;;;;;;;18.72;58.25;100165.44;2090684;28;20559;-44
2021/10/13 00:15:12;;;;;;;;;;;;;;;18.72;58.18;100162.72;2088048;28;19920;-44
2021/10/13 00:16:14;;;;;;;;;;;;;;;18.71;58.15;100169.16;2096173;28;19942;-44
2021/10/13 00:17:14;;;;;;;;;;;;;;;18.71;58.25;100169.16;2092778;28;20153;-44
2021/10/13 00:18:14;;;;;;;;;;;;;;;18.72;58.13;100165.44;2090263;28;19916;-44
2021/10/13 00:19:14;;;;;;;;;;;;;;;18.71;58.14;100169.16;2087251;28;20400;-44
2021/10/13 00:20:15;;;;;;;;;;;;;;;18.71;58.18;100160.97;2087463;28;19919;-44
2021/10/13 00:21:15;;;;;;;;;;;;;;;18.70;58.20;100167.44;2094064;28;20068;-44
2021/10/13 00:22:16;;;;;;;;;;;;;;;18.72;58.17;100170.03;2092398;28;19969;-43
2021/10/13 00:23:16;;;;;;;;;;;;;;;18.72;58.06;100172.78;2091831;28;20138;-44
2021/10/13 00:24:17;;;;;;;;;;;;;;;18.72;58.23;100170.91;2092447;28;19923;-44
2021/10/13 00:25:18;;;;;;;;;;;;;;;18.72;58.18;100168.16;2092839;28;19922;-44
2021/10/13 00:26:18;;;;;;;;;;;;;;;18.72;58.25;100176.34;2091748;28;19916;-43
2021/10/13 00:27:18;;;;;;;;;;;;;;;18.72;58.18;100176.34;2088841;28;19904;-44
2021/10/13 00:28:19;;;;;;;;;;;;;;;18.71;58.21;100176.50;2090174;28;19950;-44
2021/10/13 00:29:20;;;;;;;;;;;;;;;18.71;58.23;100180.09;2092937;28;19928;-44
2021/10/13 00:30:20;;;;;;;;;;;;;;;18.72;58.16;100186.44;2094347;28;19920;-44
2021/10/13 00:31:20;;;;;;;;;;;;;;;18.72;58.25;100187.28;2092139;28;20006;-44
2021/10/13 00:32:21;;;;;;;;;;;;;;;18.71;58.15;100185.53;2094667;28;20148;-44
2021/10/13 00:33:21;;;;;;;;;;;;;;;18.71;58.22;100191.00;2086286;28;20087;-44
2021/10/13 00:34:21;;;;;;;;;;;;;;;18.72;58.16;100192.75;2086358;28;19904;-44
2021/10/13 00:35:22;;;;;;;;;;;;;;;18.71;58.06;100190.16;2098689;28;20334;-43
2021/10/13 00:36:22;;;;;;;;;;;;;;;18.69;58.25;100187.59;2089564;28;19916;-44
2021/10/13 00:37:23;;;;;;;;;;;;;;;18.71;58.05;100191.00;2087901;28;20002;-44
2021/10/13 00:38:23;;;;;;;;;;;;;;;18.71;58.07;100191.00;2091091;28;19909;-43
2021/10/13 00:39:24;;;;;;;;;;;;;;;18.71;58.11;100196.47;2088604;28;20287;-44
2021/10/13 00:40:24;;;;;;;;;;;;;;;18.71;58.19;100191.00;2081327;28;19921;-43
2021/10/13 00:41:24;;;;;;;;;;;;;;;18.72;58.22;100194.63;2090777;28;19962;-44
2021/10/13 00:42:25;;;;;;;;;;;;;;;18.71;58.07;100191.00;2089543;28;19923;-43
2021/10/13 00:43:25;;;;;;;;;;;;;;;18.71;58.26;100196.47;2088276;28;19911;-43
2021/10/13 00:44:26;;;;;;;;;;;;;;;18.72;58.16;100197.34;2106623;27;20279;-44
2021/10/13 00:45:26;;;;;;;;;;;;;;;18.71;58.26;100196.47;2103662;27;19922;-44
2021/10/13 00:46:26;;;;;;;;;;;;;;;18.71;58.16;100198.34;2087733;28;20494;-44
2021/10/13 00:47:26;;;;;;;;;;;;;;;18.70;58.20;100200.22;2089558;28;19920;-44
2021/10/13 00:48:27;;;;;;;;;;;;;;;18.71;58.28;100190.16;2096132;28;19920;-44
2021/10/13 00:49:27;;;;;;;;;;;;;;;18.70;58.18;100205.69;2089738;28;20438;-44
2021/10/13 00:50:28;;;;;;;;;;;;;;;18.70;58.21;100205.69;2088201;28;19927;-45
2021/10/13 00:51:29;;;;;;;;;;;;;;;18.70;58.29;100205.69;2095738;28;19962;-44
2021/10/13 00:52:29;;;;;;;;;;;;;;;18.69;58.25;100195.78;2091970;28;19916;-44
2021/10/13 00:53:30;;;;;;;;;;;;;;;18.70;58.18;100194.75;2092515;28;19920;-44
2021/10/13 00:54:30;;;;;;;;;;;;;;;18.71;58.19;100201.06;2092254;28;19912;-44
2021/10/13 00:55:30;;;;;;;;;;;;;;;18.70;58.18;100199.34;2088378;28;20254;-44
2021/10/13 00:56:31;;;;;;;;;;;;;;;18.70;58.18;100202.09;2089289;28;19976;-43
2021/10/13 00:57:31;;;;;;;;;;;;;;;18.69;58.37;100198.50;2092324;28;19919;-43
2021/10/13 00:58:31;;;;;;;;;;;;;;;18.70;58.26;100191.16;2093899;28;19912;-43
2021/10/13 00:59:32;;;;;;;;;;;;;;;18.69;58.04;100193.03;2088270;28;20332;-46
2021/10/13 01:00:32;;;;;;;;;;;;;;;18.69;58.17;100195.78;2097053;28;19919;-44
2021/10/13 01:01:38;;;;;;;;;;;;;;;18.69;58.17;100203.97;2090690;28;19920;-44
2021/10/13 01:02:46;;;;;;;;;;;;;;;18.69;58.17;100197.63;2091895;28;19985;-44
2021/10/13 01:04:14;;;;;;;;;;;;;;;18.68;58.36;100191.31;2089435;28;19920;-43
2021/10/13 01:05:26;;;;;;;;;;;;;;;18.68;58.30;100190.44;2092519;28;20390;-44
2021/10/13 01:06:30;;;;;;;;;;;;;;;18.68;58.28;100191.31;2094220;28;20431;-43
2021/10/13 01:07:45;;;;;;;;;;;;;;;18.68;58.28;100188.56;2092541;28;19915;-44
2021/10/13 01:09:06;;;;;;;;;;;;;;;18.68;58.37;100190.44;2087085;28;20515;-43
2021/10/13 01:10:06;;;;;;;;;;;;;;;18.67;58.27;100195.06;2088818;28;19916;-43
2021/10/13 01:11:36;;;;;;;;;;;;;;;18.67;58.31;100186.84;2096289;28;19916;-44
2021/10/13 01:12:39;;;;;;;;;;;;;;;18.67;58.25;100184.13;2092099;28;20480;-44
2021/10/13 01:13:56;;;;;;;;;;;;;;;18.67;58.36;100173.22;2087502;28;19916;-45
2021/10/13 01:14:59;;;;;;;;;;;;;;;18.67;58.22;100173.22;2088475;28;20318;-44
2021/10/13 01:16:06;;;;;;;;;;;;;;;18.67;58.23;100177.78;2095936;28;19923;-44
2021/10/13 01:17:12;;;;;;;;;;;;;;;18.66;58.31;100176.94;2094696;28;19912;-44
2021/10/13 01:18:16;;;;;;;;;;;;;;;18.67;58.25;100173.22;2092859;28;19924;-43
2021/10/13 01:19:27;;;;;;;;;;;;;;;18.66;58.37;100187.84;2089476;28;19923;-44
2021/10/13 01:20:45;;;;;;;;;;;;;;;18.66;58.39;100179.66;2089147;28;19916;-44
2021/10/13 01:22:24;;;;;;;;;;;;;;;18.65;58.33;100180.69;2088671;28;19913;-44
2021/10/13 01:23:55;;;;;;;;;;;;;;;18.66;58.39;100181.53;2065497;28;20510;-44
2021/10/13 01:25:14;;;;;;;;;;;;;;;18.66;58.42;100181.53;2066826;28;20284;-44
2021/10/13 01:26:17;;;;;;;;;;;;;;;18.66;58.31;100187.00;2066452;28;19913;-44
2021/10/13 01:27:37;;;;;;;;;;;;;;;18.66;58.28;100178.81;2058637;28;19996;-43
2021/10/13 01:28:38;;;;;;;;;;;;;;;18.66;58.25;100192.44;2074204;28;19952;-43
2021/10/13 01:29:39;;;;;;;;;;;;;;;18.64;58.25;100184.41;2087489;28;20671;-43
2021/10/13 01:30:43;;;;;;;;;;;;;;;18.64;58.45;100188.00;2086150;28;19970;-44
2021/10/13 01:31:47;;;;;;;;;;;;;;;18.64;58.32;100181.66;2111834;27;20308;-44
2021/10/13 01:32:51;;;;;;;;;;;;;;;18.64;58.30;100184.41;2102043;27;19951;-44
2021/10/13 01:34:00;;;;;;;;;;;;;;;18.65;58.30;100183.41;2085680;28;20694;-44
2021/10/13 01:35:01;;;;;;;;;;;;;;;18.65;58.15;100186.13;2093653;28;20004;-44
2021/10/13 01:36:05;;;;;;;;;;;;;;;18.65;58.29;100180.69;2088271;28;19986;-44
2021/10/13 01:37:11;;;;;;;;;;;;;;;18.64;58.34;100173.47;2089950;28;20467;-43
2021/10/13 01:38:13;;;;;;;;;;;;;;;18.65;58.28;100188.88;2093144;28;19947;-43
2021/10/13 01:39:14;;;;;;;;;;;;;;;18.64;58.20;100187.13;2087895;28;20337;-44
2021/10/13 01:40:15;;;;;;;;;;;;;;;18.63;58.30;100185.41;2087546;28;19916;-44
2021/10/13 01:41:17;;;;;;;;;;;;;;;18.63;58.25;100188.16;2108624;27;19916;-44
2021/10/13 01:42:18;;;;;;;;;;;;;;;18.64;58.24;100189.84;2104828;27;19915;-44
2021/10/13 01:43:19;;;;;;;;;;;;;;;18.64;58.22;100178.94;2093824;28;19908;-44
2021/10/13 01:44:20;;;;;;;;;;;;;;;18.64;58.21;100187.13;2089011;28;20096;-44
2021/10/13 01:45:22;;;;;;;;;;;;;;;18.62;58.23;100178.25;2095848;28;19920;-44
2021/10/13 01:46:23;;;;;;;;;;;;;;;18.64;58.26;100184.41;2088081;28;19920;-44
2021/10/13 01:47:25;;;;;;;;;;;;;;;18.62;58.33;100183.72;2091722;28;19916;-44
2021/10/13 01:48:27;;;;;;;;;;;;;;;18.63;58.30;100177.22;2090285;28;20503;-44
2021/10/13 01:49:33;;;;;;;;;;;;;;;18.61;58.22;100174.63;2097863;28;20413;-43
2021/10/13 01:50:35;;;;;;;;;;;;;;;18.62;58.26;100180.97;2093335;28;20675;-43
2021/10/13 01:51:36;;;;;;;;;;;;;;;18.62;58.18;100172.78;2088579;28;20380;-43
2021/10/13 01:52:38;;;;;;;;;;;;;;;18.62;58.18;100176.38;2087333;28;19920;-44
2021/10/13 01:53:40;;;;;;;;;;;;;;;18.63;58.35;100175.34;2091866;28;20209;-44
2021/10/13 01:54:42;;;;;;;;;;;;;;;18.62;58.32;100175.50;2090281;28;19920;-44
2021/10/13 01:55:43;;;;;;;;;;;;;;;18.62;58.24;100189.16;2090970;28;20961;-44
2021/10/13 01:56:44;;;;;;;;;;;;;;;18.61;58.31;100180.09;2090952;28;19920;-44
2021/10/13 01:57:50;;;;;;;;;;;;;;;18.61;58.32;100185.53;2089163;28;19920;-44
2021/10/13 01:58:50;;;;;;;;;;;;;;;18.62;58.26;100186.44;2099579;28;19964;-44
2021/10/13 01:59:52;;;;;;;;;;;;;;;18.63;58.38;100188.16;2086886;28;19916;-43
2021/10/13 02:00:53;;;;;;;;;;;;;;;18.62;58.16;100194.63;2090777;28;19916;-45
2021/10/13 02:01:54;;;;;;;;;;;;;;;18.63;58.18;100193.59;2088982;28;19948;-43
2021/10/13 02:02:56;;;;;;;;;;;;;;;18.62;58.11;100197.34;2094412;28;19923;-43
2021/10/13 02:04:00;;;;;;;;;;;;;;;18.64;58.18;100198.03;2089071;28;19928;-43
2021/10/13 02:05:01;;;;;;;;;;;;;;;18.62;58.30;100198.22;2087973;28;19912;-43
2021/10/13 02:06:03;;;;;;;;;;;;;;;18.63;58.19;100199.06;2104127;27;19962;-44
2021/10/13 02:07:04;;;;;;;;;;;;;;;18.62;58.14;100200.94;2108879;27;19934;-44
2021/10/13 02:08:06;;;;;;;;;;;;;;;18.62;58.18;100200.09;2092612;28;19913;-43
2021/10/13 02:09:07;;;;;;;;;;;;;;;18.62;58.29;100205.53;2087198;28;19928;-43
2021/10/13 02:10:09;;;;;;;;;;;;;;;18.62;58.36;100200.09;2088793;28;19916;-43
2021/10/13 02:11:10;;;;;;;;;;;;;;;18.62;58.29;100197.34;2092916;28;19912;-45
2021/10/13 02:12:10;;;;;;;;;;;;;;;18.62;58.23;100197.34;2088997;28;19999;-43
2021/10/13 02:13:12;;;;;;;;;;;;;;;18.60;58.29;100197.50;2097134;28;19943;-43
2021/10/13 02:14:13;;;;;;;;;;;;;;;18.62;58.26;100194.63;2109942;27;19952;-43
2021/10/13 02:15:15;;;;;;;;;;;;;;;18.60;58.37;100194.75;2103331;27;20050;-44
2021/10/13 02:16:15;;;;;;;;;;;;;;;18.60;58.19;100193.91;2090940;28;19916;-43
2021/10/13 02:17:17;;;;;;;;;;;;;;;18.59;58.13;100197.63;2089569;28;20023;-42
2021/10/13 02:18:20;;;;;;;;;;;;;;;18.60;58.18;100193.91;2086643;28;19920;-43
2021/10/13 02:19:21;;;;;;;;;;;;;;;18.59;58.14;100186.69;2092429;28;19968;-43
2021/10/13 02:20:23;;;;;;;;;;;;;;;18.60;58.30;100188.44;2090897;28;19919;-43
2021/10/13 02:21:24;;;;;;;;;;;;;;;18.59;58.21;100190.31;2092762;28;19923;-43
2021/10/13 02:22:27;;;;;;;;;;;;;;;18.59;58.39;100186.69;2089072;28;19922;-43
2021/10/13 02:23:31;;;;;;;;;;;;;;;18.59;58.34;100192.16;2090183;28;19996;-43
2021/10/13 02:24:33;;;;;;;;;;;;;;;18.60;58.17;100193.91;2089068;28;19916;-43
2021/10/13 02:25:35;;;;;;;;;;;;;;;18.59;58.35;100192.16;2087710;28;20334;-43
2021/10/13 02:26:43;;;;;;;;;;;;;;;18.59;58.22;100197.63;2087183;28;20597;-43
2021/10/13 02:27:45;;;;;;;;;;;;;;;18.59;58.34;100197.63;2085365;28;19909;-44
2021/10/13 02:28:48;;;;;;;;;;;;;;;18.59;58.31;100186.69;2092918;28;19904;-45
2021/10/13 02:29:48;;;;;;;;;;;;;;;18.59;58.13;100201.25;2088858;28;19927;-43
2021/10/13 02:30:50;;;;;;;;;;;;;;;18.59;58.33;100197.63;2090235;28;19913;-43
2021/10/13 02:31:51;;;;;;;;;;;;;;;18.59;58.27;100200.34;2093482;28;19912;-43
2021/10/13 02:32:52;;;;;;;;;;;;;;;18.58;58.18;100196.75;2088553;28;19913;-43
2021/10/13 02:33:53;;;;;;;;;;;;;;;18.59;58.11;100197.63;2091592;28;20254;-43
2021/10/13 02:34:54;;;;;;;;;;;;;;;18.60;58.16;100204.81;2092420;28;19930;-43
2021/10/13 02:35:54;;;;;;;;;;;;;;;18.60;58.04;100202.09;2087719;28;19911;-43
2021/10/13 02:36:55;;;;;;;;;;;;;;;18.59;58.16;100201.25;2094149;28;19913;-43
2021/10/13 02:37:55;;;;;;;;;;;;;;;18.59;58.23;100197.63;2091955;28;19920;-43
2021/10/13 02:38:55;;;;;;;;;;;;;;;18.59;58.18;100203.09;2089341;28;19913;-43
2021/10/13 02:39:56;;;;;;;;;;;;;;;18.58;58.14;100206.81;2088561;28;20760;-43
2021/10/13 02:40:57;;;;;;;;;;;;;;;18.58;58.17;100206.81;2092021;28;19920;-43
2021/10/13 02:41:57;;;;;;;;;;;;;;;18.58;58.10;100218.59;2088420;28;20366;-42
2021/10/13 02:42:57;;;;;;;;;;;;;;;18.58;58.39;100212.28;2088896;28;20451;-45
2021/10/13 02:43:58;;;;;;;;;;;;;;;18.58;58.25;100212.28;2086485;28;19912;-44
2021/10/13 02:44:58;;;;;;;;;;;;;;;18.59;58.23;100208.53;2098300;27;20500;-43
2021/10/13 02:46:01;;;;;;;;;;;;;;;18.57;58.22;100216.91;2103045;28;20262;-43
2021/10/13 02:47:08;;;;;;;;;;;;;;;18.58;58.19;100212.28;2091557;28;19920;-43
2021/10/13 02:48:14;;;;;;;;;;;;;;;18.58;58.26;100217.75;2092871;28;19919;-44
2021/10/13 02:49:23;;;;;;;;;;;;;;;18.57;58.33;100216.00;2093029;28;19916;-43
2021/10/13 02:50:24;;;;;;;;;;;;;;;18.58;58.23;100217.75;2091325;28;20120;-43
2021/10/13 02:51:28;;;;;;;;;;;;;;;18.57;58.21;100216.00;2093183;28;20028;-43
2021/10/13 02:52:31;;;;;;;;;;;;;;;18.58;58.21;100217.75;2090493;28;19970;-43
2021/10/13 02:53:36;;;;;;;;;;;;;;;18.57;58.11;100218.72;2088293;28;20375;-43
2021/10/13 02:54:49;;;;;;;;;;;;;;;18.56;58.36;100212.41;2089681;28;19916;-43
2021/10/13 02:55:54;;;;;;;;;;;;;;;18.57;58.30;100218.72;2094294;28;19920;-43
2021/10/13 02:56:56;;;;;;;;;;;;;;;18.57;58.30;100213.28;2094732;28;19955;-43
2021/10/13 02:58:06;;;;;;;;;;;;;;;18.56;58.28;100212.41;2093582;28;19957;-43
2021/10/13 02:59:16;;;;;;;;;;;;;;;18.56;58.36;100217.88;2090300;28;19912;-43
2021/10/13 03:00:17;;;;;;;;;;;;;;;18.56;58.17;100214.28;2088200;28;19912;-42
2021/10/13 03:01:18;;;;;;;;;;;;;;;18.55;58.24;100207.13;2086932;28;20240;-43
2021/10/13 03:02:23;;;;;;;;;;;;;;;18.55;58.16;100213.44;2093343;28;19912;-43
2021/10/13 03:03:33;;;;;;;;;;;;;;;18.55;58.16;100213.44;2096194;28;19923;-43
2021/10/13 03:04:42;;;;;;;;;;;;;;;18.56;58.17;100214.28;2087311;28;19924;-43
2021/10/13 03:05:43;;;;;;;;;;;;;;;18.55;58.23;100212.59;2091215;28;20569;-43
2021/10/13 03:06:53;;;;;;;;;;;;;;;18.55;58.06;100207.97;2088999;28;19916;-43
2021/10/13 03:07:55;;;;;;;;;;;;;;;18.55;58.26;100204.41;2094655;28;20404;-43
2021/10/13 03:08:57;;;;;;;;;;;;;;;18.55;58.30;100218.03;2089855;28;20398;-43
2021/10/13 03:10:00;;;;;;;;;;;;;;;18.55;58.21;100207.13;2091924;28;20297;-43
2021/10/13 03:11:01;;;;;;;;;;;;;;;18.55;58.15;100209.84;2087681;28;19946;-45
2021/10/13 03:12:03;;;;;;;;;;;;;;;18.56;58.13;100214.28;2092073;28;19916;-43
2021/10/13 03:13:06;;;;;;;;;;;;;;;18.55;58.12;100215.31;2088891;28;19916;-43
2021/10/13 03:14:07;;;;;;;;;;;;;;;18.54;58.24;100208.97;2094736;28;19909;-43
2021/10/13 03:15:09;;;;;;;;;;;;;;;18.55;58.20;100218.03;2093742;28;19923;-43
2021/10/13 03:16:10;;;;;;;;;;;;;;;18.54;58.35;100216.31;2091568;28;20341;-44
2021/10/13 03:17:10;;;;;;;;;;;;;;;18.54;58.24;100217.16;2084448;28;20007;-43
2021/10/13 03:18:12;;;;;;;;;;;;;;;18.54;58.35;100216.31;2093201;28;20264;-43
2021/10/13 03:19:13;;;;;;;;;;;;;;;18.54;58.35;100216.31;2085728;28;20035;-44
2021/10/13 03:20:14;;;;;;;;;;;;;;;18.56;58.34;100222.47;2090189;28;19927;-43
2021/10/13 03:21:15;;;;;;;;;;;;;;;18.54;58.26;100216.31;2088833;28;19960;-43
2021/10/13 03:22:16;;;;;;;;;;;;;;;18.55;58.32;100220.78;2089329;28;19912;-43
2021/10/13 03:23:18;;;;;;;;;;;;;;;18.54;58.17;100221.75;2086569;28;20053;-43
2021/10/13 03:24:19;;;;;;;;;;;;;;;18.54;58.26;100224.50;2085966;28;20445;-43
2021/10/13 03:25:29;;;;;;;;;;;;;;;18.53;58.11;100220.91;2087983;28;20267;-43
2021/10/13 03:26:30;;;;;;;;;;;;;;;18.53;58.26;100225.50;2097492;28;19923;-43
2021/10/13 03:27:31;;;;;;;;;;;;;;;18.53;58.31;100225.50;2088991;28;20282;-43
2021/10/13 03:28:33;;;;;;;;;;;;;;;18.52;58.29;100230.13;2092430;28;19969;-43
2021/10/13 03:29:38;;;;;;;;;;;;;;;18.52;58.18;100223.75;2090659;28;20006;-43
2021/10/13 03:30:38;;;;;;;;;;;;;;;18.54;58.35;100240.88;2087581;28;20294;-43
2021/10/13 03:31:39;;;;;;;;;;;;;;;18.53;58.10;100237.28;2093870;28;19908;-43
2021/10/13 03:32:42;;;;;;;;;;;;;;;18.54;58.25;100232.69;2092774;28;19927;-43
2021/10/13 03:33:46;;;;;;;;;;;;;;;18.54;58.27;100235.41;2095640;28;19916;-43
2021/10/13 03:34:47;;;;;;;;;;;;;;;18.52;58.35;100232.84;2089780;28;20021;-43
2021/10/13 03:35:47;;;;;;;;;;;;;;;18.53;58.33;100233.69;2091064;28;19932;-43
2021/10/13 03:36:49;;;;;;;;;;;;;;;18.53;58.21;100230.97;2091117;28;19961;-43
2021/10/13 03:37:50;;;;;;;;;;;;;;;18.52;58.12;100226.50;2085940;28;19935;-43
2021/10/13 03:38:51;;;;;;;;;;;;;;;18.52;58.15;100235.56;2092313;28;19921;-43
2021/10/13 03:39:53;;;;;;;;;;;;;;;18.52;58.32;100229.22;2094218;28;20298;-44
2021/10/13 03:40:53;;;;;;;;;;;;;;;18.52;58.12;100226.50;2091028;28;20328;-43
2021/10/13 03:41:54;;;;;;;;;;;;;;;18.52;58.13;100226.50;2094260;28;20350;-43
2021/10/13 03:42:54;;;;;;;;;;;;;;;18.52;58.17;100227.38;2086401;28;19917;-43
2021/10/13 03:43:54;;;;;;;;;;;;;;;18.52;58.02;100224.66;2091700;28;19970;-43
2021/10/13 03:44:55;;;;;;;;;;;;;;;18.52;58.09;100226.50;2093514;28;20268;-43
2021/10/13 03:45:55;;;;;;;;;;;;;;;18.52;58.20;100229.22;2086444;28;19919;-43
2021/10/13 03:46:55;;;;;;;;;;;;;;;18.51;58.26;100220.19;2091158;28;19912;-43
2021/10/13 03:47:56;;;;;;;;;;;;;;;18.51;58.28;100217.44;2087289;28;20423;-43
2021/10/13 03:48:56;;;;;;;;;;;;;;;18.51;58.33;100225.63;2092775;28;19920;-43
2021/10/13 03:49:56;;;;;;;;;;;;;;;18.52;58.21;100234.69;2092123;28;19972;-43
2021/10/13 03:50:57;;;;;;;;;;;;;;;18.51;58.29;100230.25;2094292;28;19920;-43
2021/10/13 03:51:57;;;;;;;;;;;;;;;18.51;58.20;100232.97;2095478;28;19923;-43
2021/10/13 03:52:58;;;;;;;;;;;;;;;18.51;58.41;100238.44;2101980;28;19916;-43
2021/10/13 03:53:58;;;;;;;;;;;;;;;18.51;58.20;100235.69;2109646;27;20067;-44
2021/10/13 03:54:58;;;;;;;;;;;;;;;18.51;58.25;100232.97;2103786;27;19931;-43
2021/10/13 03:55:59;;;;;;;;;;;;;;;18.50;58.19;100228.53;2094210;28;19920;-43
2021/10/13 03:56:59;;;;;;;;;;;;;;;18.50;58.08;100228.53;2088915;28;19916;-43
2021/10/13 03:58:00;;;;;;;;;;;;;;;18.51;58.31;100232.97;2086361;28;19923;-43
2021/10/13 03:59:00;;;;;;;;;;;;;;;18.50;58.34;100240.31;2086150;28;20345;-44
2021/10/13 04:00:02;;;;;;;;;;;;;;;18.50;58.38;100242.19;2086796;28;19913;-43
2021/10/13 04:01:03;;;;;;;;;;;;;;;18.50;58.16;100242.19;2088860;28;19916;-43
2021/10/13 04:02:03;;;;;;;;;;;;;;;18.50;58.31;100242.19;2093585;28;19964;-43
2021/10/13 04:03:03;;;;;;;;;;;;;;;18.50;58.13;100247.63;2092789;28;19912;-43
2021/10/13 04:04:04;;;;;;;;;;;;;;;18.49;58.15;100241.28;2092409;28;20075;-43
2021/10/13 04:05:05;;;;;;;;;;;;;;;18.50;58.21;100239.44;2084950;28;20285;-43
2021/10/13 04:06:06;;;;;;;;;;;;;;;18.49;58.32;100246.75;2090445;28;19922;-43
2021/10/13 04:07:06;;;;;;;;;;;;;;;18.49;58.29;100235.84;2087049;28;19946;-42
2021/10/13 04:08:07;;;;;;;;;;;;;;;18.49;58.32;100232.25;2087034;28;19913;-43
2021/10/13 04:09:07;;;;;;;;;;;;;;;18.49;58.11;100226.78;2090503;28;19973;-43
2021/10/13 04:10:09;;;;;;;;;;;;;;;18.49;58.28;100232.25;2087328;28;19953;-45
2021/10/13 04:11:10;;;;;;;;;;;;;;;18.48;58.12;100236.00;2090818;28;19994;-43
2021/10/13 04:12:10;;;;;;;;;;;;;;;18.48;58.00;100238.72;2088254;28;20347;-43
2021/10/13 04:13:10;;;;;;;;;;;;;;;18.48;58.15;100249.66;2096803;28;19916;-43
2021/10/13 04:14:11;;;;;;;;;;;;;;;18.48;57.98;100255.09;2091734;28;19916;-44
2021/10/13 04:15:12;;;;;;;;;;;;;;;18.48;58.17;100253.22;2087923;28;19966;-43
2021/10/13 04:16:12;;;;;;;;;;;;;;;18.48;58.22;100261.41;2085549;28;19916;-43
2021/10/13 04:17:12;;;;;;;;;;;;;;;18.49;58.30;100262.28;2093122;28;19961;-43
2021/10/13 04:18:13;;;;;;;;;;;;;;;18.48;58.21;100261.41;2091370;28;20495;-43
2021/10/13 04:19:13;;;;;;;;;;;;;;;18.49;58.31;100262.28;2088270;28;19919;-43
2021/10/13 04:20:13;;;;;;;;;;;;;;;18.48;58.16;100260.56;2085494;28;19916;-43
2021/10/13 04:21:14;;;;;;;;;;;;;;;18.48;58.07;100260.56;2091985;28;19916;-44
2021/10/13 04:22:14;;;;;;;;;;;;;;;18.48;58.11;100260.56;2096227;28;19962;-43
2021/10/13 04:23:14;;;;;;;;;;;;;;;18.47;58.21;100259.72;2093215;28;20306;-43
2021/10/13 04:24:15;;;;;;;;;;;;;;;18.48;58.20;100266.03;2090543;28;20940;-43
2021/10/13 04:25:15;;;;;;;;;;;;;;;18.47;58.04;100258.81;2086369;28;19935;-43
2021/10/13 04:26:15;;;;;;;;;;;;;;;18.48;58.08;100260.56;2086242;28;20330;-43
2021/10/13 04:27:16;;;;;;;;;;;;;;;18.48;58.16;100263.28;2085509;28;19958;-43
2021/10/13 04:28:16;;;;;;;;;;;;;;;18.48;58.11;100271.47;2085380;28;20335;-43
2021/10/13 04:29:16;;;;;;;;;;;;;;;18.49;58.24;100273.19;2088623;28;20827;-43
2021/10/13 04:30:16;;;;;;;;;;;;;;;18.47;58.11;100276.09;2089329;28;19908;-43
2021/10/13 04:31:17;;;;;;;;;;;;;;;18.48;58.15;100276.94;2085568;28;19920;-43
2021/10/13 04:32:20;;;;;;;;;;;;;;;18.48;58.11;100266.03;2090552;28;19938;-43
2021/10/13 04:33:21;;;;;;;;;;;;;;;18.47;57.96;100264.28;2091411;28;19927;-43
2021/10/13 04:34:21;;;;;;;;;;;;;;;18.48;57.97;100266.03;2091947;28;20225;-43
2021/10/13 04:35:21;;;;;;;;;;;;;;;18.47;58.16;100265.16;2088679;28;19920;-43
2021/10/13 04:36:22;;;;;;;;;;;;;;;18.47;58.01;100264.28;2093248;28;19915;-43
2021/10/13 04:37:22;;;;;;;;;;;;;;;18.47;57.88;100272.47;2089790;28;19994;-43
2021/10/13 04:38:22;;;;;;;;;;;;;;;18.47;57.99;100272.47;2094099;28;19916;-44
2021/10/13 04:39:23;;;;;;;;;;;;;;;18.47;57.91;100269.75;2094674;28;19919;-44
2021/10/13 04:40:23;;;;;;;;;;;;;;;18.47;58.14;100265.16;2090290;28;20504;-43
2021/10/13 04:41:23;;;;;;;;;;;;;;;18.47;58.05;100269.75;2095777;28;19977;-44
2021/10/13 04:42:23;;;;;;;;;;;;;;;18.47;58.03;100275.19;2089231;28;19920;-43
2021/10/13 04:43:24;;;;;;;;;;;;;;;18.47;58.01;100272.47;2093948;28;19934;-43
2021/10/13 04:44:24;;;;;;;;;;;;;;;18.46;58.05;100274.34;2085471;28;19956;-44
2021/10/13 04:45:25;;;;;;;;;;;;;;;18.46;57.89;100268.88;2085660;28;19913;-43
2021/10/13 04:46:25;;;;;;;;;;;;;;;18.46;58.08;100276.22;2094596;28;19919;-43
2021/10/13 04:47:26;;;;;;;;;;;;;;;18.46;58.16;100274.34;2089494;28;19998;-43
2021/10/13 04:48:26;;;;;;;;;;;;;;;18.47;58.06;100275.19;2092595;28;19916;-43
2021/10/13 04:49:26;;;;;;;;;;;;;;;18.47;58.01;100280.66;2090702;28;19915;-43
2021/10/13 04:50:27;;;;;;;;;;;;;;;18.47;58.00;100277.94;2091822;28;19970;-43
2021/10/13 04:51:27;;;;;;;;;;;;;;;18.47;58.06;100277.94;2088140;28;19908;-43
2021/10/13 04:52:28;;;;;;;;;;;;;;;18.46;58.17;100279.81;2093422;28;19915;-43
2021/10/13 04:53:29;;;;;;;;;;;;;;;18.47;58.08;100280.66;2089541;28;20344;-43
2021/10/13 04:54:29;;;;;;;;;;;;;;;18.47;58.07;100280.66;2089848;28;19998;-44
2021/10/13 04:55:30;;;;;;;;;;;;;;;18.46;57.93;100279.81;2091918;28;19920;-43
2021/10/13 04:56:30;;;;;;;;;;;;;;;18.47;58.09;100287.00;2086942;28;19919;-43
2021/10/13 04:57:31;;;;;;;;;;;;;;;18.47;57.88;100289.72;2086942;28;20345;-43
2021/10/13 04:58:31;;;;;;;;;;;;;;;18.46;58.01;100289.88;2084629;28;19951;-43
2021/10/13 04:59:31;;;;;;;;;;;;;;;18.46;57.97;100295.31;2087570;28;19965;-43
2021/10/13 05:00:32;;;;;;;;;;;;;;;18.46;57.94;100295.31;2086432;28;20354;-43
2021/10/13 05:01:32;;;;;;;;;;;;;;;18.46;58.01;100289.88;2091995;28;20783;-43
2021/10/13 05:02:32;;;;;;;;;;;;;;;18.46;58.01;100295.31;2098466;28;19912;-43
2021/10/13 05:03:33;;;;;;;;;;;;;;;18.45;57.90;100289.00;2083216;28;20290;-43
2021/10/13 05:04:33;;;;;;;;;;;;;;;18.45;57.88;100299.03;2093482;28;19915;-43
2021/10/13 05:05:33;;;;;;;;;;;;;;;18.45;57.97;100299.94;2087629;28;19955;-43
2021/10/13 05:06:34;;;;;;;;;;;;;;;18.47;57.99;100302.50;2091341;28;19912;-43
2021/10/13 05:07:34;;;;;;;;;;;;;;;18.46;58.00;100306.25;2089572;28;19916;-43
2021/10/13 05:08:34;;;;;;;;;;;;;;;18.45;58.07;100304.50;2091839;28;20183;-44
2021/10/13 05:09:35;;;;;;;;;;;;;;;18.45;58.00;100299.03;2093299;28;19932;-43
2021/10/13 05:10:37;;;;;;;;;;;;;;;18.45;57.96;100299.03;2091427;28;19916;-44
2021/10/13 05:11:38;;;;;;;;;;;;;;;18.44;57.97;100298.19;2094346;28;20227;-43
2021/10/13 05:12:38;;;;;;;;;;;;;;;18.45;58.08;100301.75;2091645;28;19920;-43
2021/10/13 05:13:39;;;;;;;;;;;;;;;18.43;57.98;100304.66;2091668;28;19916;-43
2021/10/13 05:14:39;;;;;;;;;;;;;;;18.45;58.02;100310.84;2097377;28;20057;-43
2021/10/13 05:15:41;;;;;;;;;;;;;;;18.44;58.05;100311.81;2094144;28;20256;-43
2021/10/13 05:16:41;;;;;;;;;;;;;;;18.43;57.98;100313.69;2090611;28;19950;-43
2021/10/13 05:17:42;;;;;;;;;;;;;;;18.43;58.07;100308.25;2088761;28;19919;-43
2021/10/13 05:18:42;;;;;;;;;;;;;;;18.43;58.03;100308.25;2091142;28;20234;-43